Time;durP1;ratioP1;P1;durP2;ratioP2;P2;SDS_P1;SDS_P2;PMS_P1;PMS_P2;Temp;Humidity;BMP_temperature;BMP_pressure;BME280_temperature;BME280_humidity;BME280_pressure;Samples;Min_cycle;Max_cycle;Signal;HPM_P1;HPM_P2
2022/12/28 00:00:44;;;;;;;6.15;2.63;;;20.30;62.30;;;;;;5006563;27;87888;-87
2022/12/28 00:03:10;;;;;;;4.15;2.28;;;20.40;62.40;;;;;;5007068;27;88772;-86
2022/12/28 00:05:35;;;;;;;5.22;2.63;;;20.30;62.10;;;;;;5007093;27;88684;-86
2022/12/28 00:08:01;;;;;;;3.88;2.33;;;20.30;62.40;;;;;;5007901;28;87410;-86
2022/12/28 00:10:27;;;;;;;5.20;2.72;;;20.30;62.30;;;;;;5007086;27;86996;-86
2022/12/28 00:12:52;;;;;;;6.38;2.90;;;20.30;62.30;;;;;;5007131;27;87619;-87
2022/12/28 00:15:18;;;;;;;5.55;3.00;;;20.30;62.30;;;;;;5007563;27;87908;-87
2022/12/28 00:17:44;;;;;;;3.28;2.13;;;20.30;62.20;;;;;;5007002;27;87094;-87
2022/12/28 00:20:10;;;;;;;5.43;2.53;;;20.20;62.30;;;;;;5007741;28;87712;-86
2022/12/28 00:22:36;;;;;;;4.75;2.30;;;20.20;62.30;;;;;;5006380;27;89218;-86
2022/12/28 00:25:01;;;;;;;4.35;2.47;;;20.20;62.50;;;;;;5005302;27;88655;-86
2022/12/28 00:27:27;;;;;;;3.67;2.08;;;20.20;62.50;;;;;;5010297;27;87413;-87
2022/12/28 00:29:52;;;;;;;3.90;2.42;;;20.20;62.60;;;;;;5010193;27;88317;-87
2022/12/28 00:32:20;;;;;;;5.07;2.78;;;20.20;62.50;;;;;;5000226;27;87527;-85
2022/12/28 00:34:46;;;;;;;3.38;2.53;;;20.20;62.60;;;;;;5041154;27;87559;-86
2022/12/28 00:37:11;;;;;;;3.45;2.15;;;20.10;62.40;;;;;;5009890;27;87368;-87
2022/12/28 00:39:37;;;;;;;4.93;2.55;;;20.10;62.70;;;;;;5010863;27;87019;-86
2022/12/28 00:42:03;;;;;;;3.85;2.15;;;20.10;62.50;;;;;;5009785;27;88747;-85
2022/12/28 00:44:28;;;;;;;4.57;2.50;;;20.10;62.50;;;;;;5009771;27;87939;-85
2022/12/28 00:46:54;;;;;;;4.30;2.45;;;20.10;62.70;;;;;;5010363;28;88343;-85
2022/12/28 00:49:20;;;;;;;3.10;2.05;;;20.00;62.60;;;;;;5009542;27;87400;-84
2022/12/28 00:51:45;;;;;;;4.47;2.22;;;20.10;62.80;;;;;;5010193;27;88081;-87
2022/12/28 00:54:11;;;;;;;5.38;2.40;;;20.00;62.60;;;;;;5008677;27;87644;-86
2022/12/28 00:56:40;;;;;;;5.13;2.45;;;20.00;62.60;;;;;;5009193;27;87460;-86
2022/12/28 00:59:06;;;;;;;4.85;2.42;;;20.00;62.50;;;;;;5010953;28;88160;-87
2022/12/28 01:01:31;;;;;;;3.78;2.40;;;20.00;62.70;;;;;;5009474;27;88626;-87
2022/12/28 01:03:58;;;;;;;3.92;2.58;;;20.00;62.90;;;;;;5010071;27;87290;-86
2022/12/28 01:06:24;;;;;;;3.88;2.10;;;20.00;62.70;;;;;;5010024;27;87065;-86
2022/12/28 01:08:50;;;;;;;3.60;2.00;;;20.00;62.50;;;;;;5009220;27;87448;-85
2022/12/28 01:11:27;;;;;;;3.58;2.22;;;20.00;62.80;;;;;;5009455;27;89596;-85
2022/12/28 01:13:56;;;;;;;4.38;2.15;;;20.00;62.80;;;;;;5010452;28;88005;-87
2022/12/28 01:16:31;;;;;;;4.68;2.45;;;19.90;62.60;;;;;;5010462;27;87577;-87
2022/12/28 01:18:58;;;;;;;4.28;2.08;;;19.90;62.80;;;;;;5009592;27;86992;-85
2022/12/28 01:21:27;;;;;;;3.58;2.38;;;19.90;62.70;;;;;;5009021;27;87897;-86
2022/12/28 01:23:56;;;;;;;4.80;2.67;;;19.90;62.60;;;;;;5009545;27;88219;-84
2022/12/28 01:26:22;;;;;;;;;;;19.90;62.90;;;;;;5008525;27;87916;-85
2022/12/28 01:28:48;;;;;;;4.18;2.10;;;19.90;62.70;;;;;;5011440;28;86956;-87
2022/12/28 01:31:16;;;;;;;2.97;2.03;;;19.90;62.70;;;;;;5009554;27;88473;-85
2022/12/28 01:33:42;;;;;;;4.30;2.33;;;19.80;62.80;;;;;;5008781;27;88370;-86
2022/12/28 01:36:13;;;;;;;5.05;2.50;;;19.80;62.70;;;;;;5008164;27;88418;-85
2022/12/28 01:38:39;;;;;;;3.88;2.45;;;19.80;62.70;;;;;;5008672;27;87596;-86
2022/12/28 01:41:09;;;;;;;4.43;2.20;;;19.80;62.60;;;;;;5009538;28;87528;-85
2022/12/28 01:43:41;;;;;;;4.70;2.53;;;19.80;62.80;;;;;;5008444;27;88595;-87
2022/12/28 01:46:11;;;;;;;3.60;2.10;;;19.80;62.70;;;;;;5008352;27;86975;-85
2022/12/28 01:48:44;;;;;;;4.82;2.22;;;19.80;62.50;;;;;;5009065;27;87065;-86
2022/12/28 01:51:10;;;;;;;5.07;2.10;;;19.80;62.60;;;;;;5008651;27;88176;-86
2022/12/28 01:53:36;;;;;;;3.08;2.30;;;19.80;62.80;;;;;;5009235;27;87008;-85
2022/12/28 01:56:03;;;;;;;3.47;1.92;;;19.80;62.70;;;;;;5010418;28;87619;-84
2022/12/28 01:58:32;;;;;;;4.22;2.20;;;19.80;62.80;;;;;;5008718;27;87608;-87
2022/12/28 02:00:57;;;;;;;5.05;2.58;;;19.80;63.50;;;;;;5008172;27;89333;-85
2022/12/28 02:03:27;;;;;;;2.53;1.92;;;19.70;62.70;;;;;;5008679;27;88676;-86
2022/12/28 02:05:53;;;;;;;;;;;19.70;62.60;;;;;;5008994;27;87368;-86
2022/12/28 02:08:26;;;;;;;5.05;2.42;;;19.70;62.40;;;;;;5009852;27;87529;-85
2022/12/28 02:10:53;;;;;;;2.53;1.80;;;19.70;62.40;;;;;;5008676;28;88544;-85
2022/12/28 02:13:20;;;;;;;4.22;2.30;;;19.70;62.50;;;;;;5008248;27;87485;-85
2022/12/28 02:15:46;;;;;;;3.20;1.80;;;19.70;62.50;;;;;;5009360;27;87640;-87
2022/12/28 02:18:14;;;;;;;3.17;2.00;;;19.70;62.60;;;;;;5008481;27;86873;-86
2022/12/28 02:21:01;;;;;;;2.15;1.60;;;19.70;62.70;;;;;;5006601;28;89744;-86
2022/12/28 02:23:45;;;;;;;3.85;2.40;;;19.70;62.70;;;;;;5008043;27;87745;-85
2022/12/28 02:26:22;;;;;;;3.47;1.90;;;19.60;62.80;;;;;;5008331;28;88251;-87
2022/12/28 02:29:07;;;;;;;3.95;2.17;;;19.70;62.80;;;;;;5008518;28;91790;-85
2022/12/28 02:31:56;;;;;;;2.60;1.85;;;19.60;62.70;;;;;;5008366;27;88128;-84
2022/12/28 02:34:25;;;;;;;3.92;2.17;;;19.60;62.70;;;;;;5030437;27;87044;-85
2022/12/28 02:37:00;;;;;;;3.07;1.80;;;19.60;62.90;;;;;;5008573;27;87581;-86
2022/12/28 02:39:47;;;;;;;2.90;1.75;;;19.60;62.70;;;;;;5008243;27;87201;-86
2022/12/28 02:42:15;;;;;;;3.30;1.85;;;19.60;62.90;;;;;;5007825;27;88404;-86
2022/12/28 02:50:13;;;;;;;5.45;2.30;;;19.60;62.80;;;;;;5008560;28;87145;-87
2022/12/28 02:52:38;;;;;;;3.92;2.33;;;19.60;62.60;;;;;;5007034;27;89376;-86
2022/12/28 02:58:26;;;;;;;2.80;1.73;;;19.60;63.10;;;;;;5008249;27;86922;-84
2022/12/28 03:00:57;;;;;;;3.85;2.33;;;19.60;62.70;;;;;;5007690;27;87561;-84
2022/12/28 03:03:52;;;;;;;2.72;1.80;;;19.50;62.70;;;;;;5008213;27;88523;-85
2022/12/28 03:10:05;;;;;;;3.40;1.85;;;19.50;62.80;;;;;;5008204;27;87311;-86
2022/12/28 03:12:45;;;;;;;2.75;1.90;;;19.50;62.80;;;;;;4965736;28;86872;-87
2022/12/28 03:15:28;;;;;;;3.58;1.98;;;19.50;63.00;;;;;;4965343;28;88927;-86
2022/12/28 03:31:57;;;;;;;2.92;1.90;;;19.40;62.90;;;;;;4965765;28;87734;-84
2022/12/28 03:34:23;;;;;;;2.83;1.98;;;19.40;62.90;;;;;;4946955;28;87992;-87
2022/12/28 03:36:56;;;;;;;2.08;1.50;;;19.40;62.80;;;;;;4951677;28;87670;-85
2022/12/28 03:39:35;;;;;;;4.93;2.13;;;19.40;62.90;;;;;;4954053;28;87126;-85
2022/12/28 03:45:18;;;;;;;2.58;1.40;;;19.40;62.80;;;;;;4945192;28;87621;-86
2022/12/28 03:47:46;;;;;;;3.33;1.90;;;19.40;62.70;;;;;;4945556;28;89564;-85
2022/12/28 03:50:13;;;;;;;2.15;1.50;;;19.40;62.70;;;;;;4983124;28;87833;-86
2022/12/28 03:52:39;;;;;;;2.65;1.88;;;19.40;62.80;;;;;;4986882;28;87700;-87
2022/12/28 03:55:05;;;;;;;3.05;1.73;;;19.40;62.80;;;;;;4986815;28;87333;-85
2022/12/28 03:57:31;;;;;;;3.63;1.70;;;19.40;62.80;;;;;;4986570;28;88319;-85
2022/12/28 03:59:56;;;;;;;2.00;1.60;;;19.40;62.90;;;;;;4988989;28;87245;-88
2022/12/28 04:02:22;;;;;;;4.05;2.03;;;19.30;62.90;;;;;;4991087;28;87409;-87
2022/12/28 04:04:47;;;;;;;2.50;1.45;;;19.40;62.90;;;;;;4991094;28;87815;-87
2022/12/28 04:07:13;;;;;;;1.77;1.40;;;19.40;63.00;;;;;;4990192;28;89222;-87
2022/12/28 04:09:46;;;;;;;2.35;1.90;;;19.30;63.00;;;;;;4990209;28;87541;-87
2022/12/28 04:12:13;;;;;;;2.33;1.58;;;19.30;62.80;;;;;;4990342;28;89177;-86
2022/12/28 04:14:39;;;;;;;2.15;1.55;;;19.30;62.90;;;;;;4989366;28;88150;-87
2022/12/28 04:17:04;;;;;;;4.88;2.00;;;19.30;62.90;;;;;;4990999;28;87994;-86
2022/12/28 04:19:30;;;;;;;2.30;1.58;;;19.30;62.60;;;;;;4989552;28;87980;-86
2022/12/28 04:21:56;;;;;;;2.28;1.73;;;19.30;62.90;;;;;;4991146;28;87625;-87
2022/12/28 04:24:21;;;;;;;3.17;1.40;;;19.30;62.90;;;;;;4989954;28;87279;-87
2022/12/28 04:26:47;;;;;;;1.98;1.50;;;19.30;62.90;;;;;;4989970;28;87471;-87
2022/12/28 04:29:13;;;;;;;2.05;1.52;;;19.30;62.90;;;;;;4991870;28;88273;-88
2022/12/28 04:31:38;;;;;;;3.58;1.80;;;19.30;63.00;;;;;;4990012;28;87390;-88
2022/12/28 04:34:05;;;;;;;2.88;1.35;;;19.30;63.20;;;;;;4990530;28;87044;-87
2022/12/28 04:36:31;;;;;;;2.53;1.67;;;19.30;63.10;;;;;;4989426;28;89545;-88
2022/12/28 04:38:58;;;;;;;3.80;1.67;;;19.20;62.80;;;;;;4991193;28;89568;-86
2022/12/28 04:41:23;;;;;;;2.47;1.60;;;19.20;62.90;;;;;;4990104;28;87593;-87
2022/12/28 04:43:49;;;;;;;1.83;1.58;;;19.20;62.90;;;;;;4990888;28;87237;-86
2022/12/28 04:46:16;;;;;;;3.47;1.52;;;19.20;63.00;;;;;;4989750;28;88255;-86
2022/12/28 04:48:42;;;;;;;3.75;2.00;;;19.20;62.90;;;;;;4989808;28;87781;-86
2022/12/28 04:51:17;;;;;;;2.75;1.80;;;19.20;62.80;;;;;;4990784;28;87795;-87
2022/12/28 04:53:43;;;;;;;2.53;1.42;;;19.20;62.90;;;;;;4990419;28;87173;-86
2022/12/28 04:56:11;;;;;;;2.22;1.52;;;19.20;63.00;;;;;;4989871;28;88104;-87
2022/12/28 04:58:37;;;;;;;3.97;1.40;;;19.20;63.00;;;;;;4990521;28;87507;-87
2022/12/28 05:01:08;;;;;;;5.13;2.08;;;19.20;63.10;;;;;;4989587;28;88271;-88
2022/12/28 05:03:35;;;;;;;2.20;1.30;;;19.20;63.10;;;;;;4989621;28;86968;-87
2022/12/28 05:06:07;;;;;;;2.03;1.52;;;19.20;62.90;;;;;;4989526;28;88006;-88
2022/12/28 05:08:35;;;;;;;2.13;1.42;;;19.20;63.10;;;;;;4989654;28;88943;-88
2022/12/28 05:11:06;;;;;;;2.10;1.65;;;19.10;63.00;;;;;;4990026;28;87241;-86
2022/12/28 05:13:32;;;;;;;1.80;1.40;;;19.20;63.10;;;;;;4989668;28;87406;-87
2022/12/28 05:16:05;;;;;;;2.15;1.38;;;19.10;63.20;;;;;;4989311;28;88570;-87
2022/12/28 05:18:31;;;;;;;2.17;1.50;;;19.10;62.90;;;;;;4989969;28;88966;-86
2022/12/28 05:21:08;;;;;;;2.88;1.60;;;19.20;63.00;;;;;;4989415;28;87054;-87
2022/12/28 05:23:36;;;;;;;2.15;1.58;;;19.10;63.00;;;;;;4989575;28;87487;-85
2022/12/28 05:26:02;;;;;;;2.00;1.50;;;19.10;63.00;;;;;;4989474;28;89354;-84
2022/12/28 05:28:28;;;;;;;2.53;1.50;;;19.10;63.30;;;;;;4988911;28;89023;-86
2022/12/28 05:30:59;;;;;;;1.75;1.52;;;19.10;62.90;;;;;;4989587;28;87439;-83
2022/12/28 05:33:25;;;;;;;1.63;1.40;;;19.10;63.10;;;;;;4988858;28;86962;-84
2022/12/28 05:35:51;;;;;;;2.33;1.60;;;19.10;63.00;;;;;;4980523;28;88608;-84
2022/12/28 05:38:16;;;;;;;2.83;1.70;;;19.10;63.10;;;;;;4989698;28;88309;-85
2022/12/28 05:40:42;;;;;;;2.08;1.38;;;19.10;62.90;;;;;;4989838;28;87737;-86
2022/12/28 05:43:07;;;;;;;2.28;1.70;;;19.10;63.30;;;;;;4989349;28;87087;-85
2022/12/28 05:45:33;;;;;;;2.33;1.70;;;19.00;63.20;;;;;;4989306;28;88601;-85
2022/12/28 05:47:59;;;;;;;1.75;1.25;;;19.10;63.00;;;;;;4989243;28;89461;-85
2022/12/28 05:50:24;;;;;;;1.83;1.48;;;19.00;63.00;;;;;;4988686;28;88573;-86
2022/12/28 05:52:50;;;;;;;2.45;1.58;;;19.10;63.20;;;;;;4988498;28;87676;-87
2022/12/28 05:55:15;;;;;;;2.67;1.60;;;19.10;62.90;;;;;;4987389;28;88125;-85
2022/12/28 05:57:41;;;;;;;2.63;1.45;;;19.10;63.20;;;;;;4988636;28;87452;-84
2022/12/28 06:00:07;;;;;;;1.58;1.30;;;19.10;63.20;;;;;;4988027;28;87418;-84
2022/12/28 06:02:33;;;;;;;1.85;1.40;;;19.00;63.00;;;;;;4988957;28;89091;-84
2022/12/28 06:04:58;;;;;;;1.77;1.40;;;19.10;63.10;;;;;;4989115;28;87997;-85
2022/12/28 06:07:24;;;;;;;2.00;1.50;;;19.00;63.20;;;;;;4989220;28;87419;-84
2022/12/28 06:09:49;;;;;;;1.85;1.50;;;19.00;63.30;;;;;;4988867;28;86929;-85
2022/12/28 06:12:15;;;;;;;2.13;1.20;;;19.10;63.10;;;;;;4987786;28;87530;-85
2022/12/28 06:14:41;;;;;;;2.47;1.52;;;19.00;63.20;;;;;;4979105;28;92664;-85
2022/12/28 06:17:06;;;;;;;2.25;1.40;;;19.00;63.30;;;;;;4988217;28;88933;-85
2022/12/28 06:19:32;;;;;;;2.25;1.50;;;19.00;63.30;;;;;;5007557;28;87462;-85
2022/12/28 06:21:57;;;;;;;2.40;1.75;;;19.00;63.20;;;;;;5000163;27;87486;-85
2022/12/28 06:24:23;;;;;;;1.85;1.52;;;19.00;63.10;;;;;;5007383;27;88757;-85
2022/12/28 06:26:48;;;;;;;1.90;1.33;;;19.00;63.20;;;;;;5008199;27;88313;-85
2022/12/28 06:29:14;;;;;;;2.20;1.33;;;19.00;63.30;;;;;;5009286;28;87545;-84
2022/12/28 06:31:44;;;;;;;2.10;1.50;;;19.00;63.30;;;;;;5008057;27;86812;-84
2022/12/28 06:34:09;;;;;;;1.52;1.30;;;19.10;63.00;;;;;;5008176;27;88127;-85
2022/12/28 06:36:43;;;;;;;2.15;1.60;;;19.20;62.70;;;;;;5007758;27;87900;-84
2022/12/28 06:39:12;;;;;;;1.90;1.27;;;19.30;62.30;;;;;;5007778;27;88414;-85
2022/12/28 06:41:39;;;;;;;1.75;1.13;;;19.40;62.20;;;;;;5008541;27;87417;-84
2022/12/28 06:44:08;;;;;;;3.55;1.42;;;19.50;62.30;;;;;;5009629;28;88252;-85
2022/12/28 06:46:35;;;;;;;3.00;1.33;;;19.60;62.10;;;;;;5008279;27;88249;-85
2022/12/28 06:49:01;;;;;;;1.75;1.20;;;19.70;62.00;;;;;;5007984;27;87476;-86
2022/12/28 06:51:29;;;;;;;2.65;1.20;;;19.90;61.60;;;;;;4996271;28;89033;-85
2022/12/28 06:53:55;;;;;;;2.72;1.40;;;20.10;61.50;;;;;;5007326;27;88224;-84
2022/12/28 06:56:27;;;;;;;2.53;1.33;;;20.20;61.00;;;;;;5007744;27;88619;-85
2022/12/28 06:58:53;;;;;;;1.80;1.48;;;20.40;60.70;;;;;;5008524;28;87473;-84
2022/12/28 07:01:22;;;;;;;3.00;1.08;;;20.50;60.50;;;;;;5008020;27;87394;-84
2022/12/28 07:03:49;;;;;;;3.13;1.30;;;20.60;60.20;;;;;;5007332;27;88544;-85
2022/12/28 07:06:17;;;;;;;3.05;1.17;;;20.70;60.10;;;;;;5006924;27;88508;-84
2022/12/28 07:08:44;;;;;;;2.08;1.00;;;20.70;60.40;;;;;;5007813;27;87235;-86
2022/12/28 07:11:12;;;;;;;3.33;1.40;;;20.70;60.10;;;;;;5007936;28;87388;-86
2022/12/28 07:13:38;;;;;;;1.55;1.45;;;20.70;60.70;;;;;;5008777;27;88408;-84
2022/12/28 07:16:16;;;;;;;1.42;1.05;;;20.70;59.90;;;;;;5007460;27;88522;-85
2022/12/28 07:18:42;;;;;;;1.00;0.77;;;20.70;59.90;;;;;;5007316;27;87047;-84
2022/12/28 07:21:17;;;;;;;1.75;1.23;;;20.70;60.00;;;;;;5008226;27;87002;-85
2022/12/28 07:23:43;;;;;;;3.05;1.60;;;20.70;60.10;;;;;;5007671;27;91688;-85
2022/12/28 07:26:19;;;;;;;1.23;1.10;;;20.60;60.20;;;;;;5008285;28;87868;-86
2022/12/28 07:28:47;;;;;;;2.22;1.13;;;20.60;60.40;;;;;;5007513;28;88309;-84
2022/12/28 07:31:15;;;;;;;1.30;1.00;;;20.60;60.40;;;;;;5007745;27;87032;-85
2022/12/28 07:33:42;;;;;;;1.70;1.27;;;20.50;60.40;;;;;;5007180;27;87425;-84
2022/12/28 07:36:11;;;;;;;2.47;1.23;;;20.50;60.40;;;;;;5012516;27;88580;-84
2022/12/28 07:38:37;;;;;;;1.97;1.17;;;20.50;60.40;;;;;;5014343;27;87806;-86
2022/12/28 07:41:05;;;;;;;0.90;0.80;;;20.40;60.60;;;;;;5014574;28;86979;-85
2022/12/28 07:43:34;;;;;;;2.58;1.20;;;20.40;60.70;;;;;;5018689;27;92669;-86
2022/12/28 07:46:15;;;;;;;4.28;1.33;;;20.40;60.10;;;;;;5015252;27;87189;-83
2022/12/28 07:48:42;;;;;;;1.98;1.30;;;20.40;60.60;;;;;;5012794;27;87726;-84
2022/12/28 07:51:10;;;;;;;5.50;1.80;;;20.30;61.00;;;;;;5013605;27;87492;-85
2022/12/28 07:53:37;;;;;;;12.13;2.23;;;20.40;60.50;;;;;;5013808;27;88694;-86
2022/12/28 07:56:03;;;;;;;26.23;4.88;;;20.40;60.60;;;;;;5014520;28;92246;-85
2022/12/28 07:58:29;;;;;;;17.98;4.63;;;20.30;59.70;;;;;;5013521;27;87568;-83
2022/12/28 08:01:06;;;;;;;13.35;3.53;;;20.30;60.10;;;;;;5013965;27;86972;-84
2022/12/28 08:03:31;;;;;;;14.88;4.50;;;20.30;60.50;;;;;;5013603;27;88605;-85
2022/12/28 08:06:09;;;;;;;14.65;3.28;;;20.40;60.70;;;;;;5014372;27;88146;-84
2022/12/28 08:08:39;;;;;;;25.75;6.50;;;20.50;60.80;;;;;;5013885;27;87430;-87
2022/12/28 08:11:09;;;;;;;26.95;6.65;;;20.60;59.90;;;;;;5015634;28;88614;-85
2022/12/28 08:13:36;;;;;;;27.25;6.78;;;20.60;59.70;;;;;;5013411;27;88584;-86
2022/12/28 08:16:02;;;;;;;24.13;5.97;;;20.60;60.10;;;;;;5013660;27;88052;-85
2022/12/28 08:18:28;;;;;;;23.38;5.25;;;20.60;61.30;;;;;;5012993;27;87934;-84
2022/12/28 08:20:58;;;;;;;20.83;5.65;;;20.60;62.50;;;;;;5013143;27;87405;-85
2022/12/28 08:23:24;;;;;;;28.08;6.63;;;20.60;61.50;;;;;;5013115;27;88282;-84
2022/12/28 08:25:49;;;;;;;23.40;6.53;;;20.60;59.70;;;;;;5013775;28;88202;-84
2022/12/28 08:28:15;;;;;;;26.15;6.40;;;20.50;60.50;;;;;;5013172;27;87476;-84
2022/12/28 08:30:41;;;;;;;18.63;6.07;;;20.40;61.10;;;;;;5013895;27;87482;-86
2022/12/28 08:33:06;;;;;;;26.33;6.75;;;20.30;61.60;;;;;;5004299;27;88654;-85
2022/12/28 08:35:32;;;;;;;20.95;5.95;;;20.20;61.90;;;;;;5014242;27;87635;-85
2022/12/28 08:37:57;;;;;;;28.38;6.00;;;20.10;62.20;;;;;;5015266;28;87829;-85
2022/12/28 08:40:26;;;;;;;15.85;4.68;;;20.10;62.40;;;;;;5036549;27;87569;-86
2022/12/28 08:42:55;;;;;;;27.23;5.93;;;20.00;62.30;;;;;;5013134;27;88573;-84
2022/12/28 08:45:24;;;;;;;26.58;6.15;;;20.00;62.60;;;;;;5012977;27;89190;-86
2022/12/28 08:47:53;;;;;;;24.43;5.97;;;20.00;63.00;;;;;;5009699;27;87546;-86
2022/12/28 08:50:19;;;;;;;20.15;5.65;;;20.10;62.80;;;;;;5009942;27;87427;-85
2022/12/28 08:52:45;;;;;;;19.85;5.30;;;20.10;62.80;;;;;;5010300;28;88094;-84
2022/12/28 08:55:10;;;;;;;18.17;5.35;;;20.20;62.40;;;;;;5010177;27;88471;-85
2022/12/28 08:57:36;;;;;;;20.00;4.60;;;20.30;62.30;;;;;;5010902;27;87621;-85
2022/12/28 09:00:05;;;;;;;19.80;5.47;;;20.40;62.20;;;;;;5010931;27;86655;-84
2022/12/28 09:02:30;;;;;;;20.43;5.27;;;20.40;62.00;;;;;;5009607;27;89076;-85
2022/12/28 09:04:56;;;;;;;21.63;5.47;;;20.40;62.00;;;;;;5011175;28;87391;-86
2022/12/28 09:07:21;;;;;;;16.75;5.18;;;20.40;61.90;;;;;;5010332;27;88263;-85
2022/12/28 09:09:47;;;;;;;17.67;4.90;;;20.40;62.00;;;;;;5010137;27;87591;-87
2022/12/28 09:12:13;;;;;;;26.65;4.63;;;20.30;62.00;;;;;;5010203;27;87539;-85
2022/12/28 09:14:38;;;;;;;15.63;4.30;;;20.30;62.10;;;;;;5010214;27;87768;-86
2022/12/28 09:17:04;;;;;;;22.30;5.15;;;20.20;62.20;;;;;;5011665;28;87059;-85
2022/12/28 09:19:29;;;;;;;19.40;5.75;;;20.20;62.50;;;;;;5009432;27;87431;-86
2022/12/28 09:21:55;;;;;;;15.27;4.32;;;20.20;62.30;;;;;;5009395;27;88155;-86
2022/12/28 09:24:22;;;;;;;11.88;4.40;;;20.20;62.50;;;;;;5010356;27;87939;-86
2022/12/28 09:26:49;;;;;;;18.60;5.50;;;20.10;62.40;;;;;;5010286;27;86953;-86
2022/12/28 09:29:15;;;;;;;13.85;4.50;;;20.20;62.70;;;;;;5010189;28;87092;-86
2022/12/28 09:31:41;;;;;;;17.90;4.65;;;20.20;62.70;;;;;;5008621;27;89565;-85
2022/12/28 09:34:12;;;;;;;14.63;4.85;;;20.10;62.80;;;;;;5007776;27;92923;-86
2022/12/28 09:36:43;;;;;;;13.85;4.40;;;20.10;62.60;;;;;;4999819;27;87644;-86
2022/12/28 09:39:17;;;;;;;17.95;4.80;;;20.20;62.50;;;;;;5010298;27;87141;-85
2022/12/28 09:42:09;;;;;;;15.95;4.72;;;20.20;62.30;;;;;;5008882;27;87653;-85
2022/12/28 09:44:58;;;;;;;12.85;4.43;;;20.30;62.10;;;;;;5009767;27;88053;-87
2022/12/28 09:47:32;;;;;;;15.35;4.45;;;20.30;61.80;;;;;;5009641;27;87562;-87
2022/12/28 09:50:17;;;;;;;13.85;4.35;;;20.30;62.10;;;;;;5009984;28;86940;-85
2022/12/28 09:52:58;;;;;;;13.32;4.03;;;20.30;62.00;;;;;;5009535;28;92987;-85
2022/12/28 09:55:27;;;;;;;18.60;4.88;;;20.40;62.00;;;;;;4995083;28;90689;-85
2022/12/28 09:58:02;;;;;;;12.18;4.00;;;20.40;61.90;;;;;;4996338;28;89043;-85
2022/12/28 10:00:38;;;;;;;15.23;4.40;;;20.30;62.30;;;;;;4997775;28;87376;-85
2022/12/28 10:03:13;;;;;;;13.52;4.47;;;20.30;62.30;;;;;;4998188;28;88169;-87
2022/12/28 10:05:39;;;;;;;14.27;4.40;;;20.30;62.40;;;;;;4996901;28;88391;-86
2022/12/28 10:08:05;;;;;;;13.13;4.10;;;20.30;62.00;;;;;;4997221;28;87461;-85
2022/12/28 10:10:31;;;;;;;11.15;4.30;;;20.30;62.10;;;;;;4997230;28;87257;-86
2022/12/28 10:13:01;;;;;;;12.68;4.45;;;20.20;62.30;;;;;;4984055;28;94788;-86
2022/12/28 10:15:27;;;;;;;13.25;3.92;;;20.30;62.40;;;;;;4968520;28;89959;-84
2022/12/28 10:17:53;;;;;;;12.70;4.32;;;20.20;62.30;;;;;;4975377;28;87603;-85
2022/12/28 10:20:21;;;;;;;14.80;4.38;;;20.30;62.40;;;;;;4975587;28;87409;-86
2022/12/28 10:22:51;;;;;;;13.45;3.90;;;20.30;62.20;;;;;;4978146;28;90218;-87
2022/12/28 10:25:18;;;;;;;;;;;20.30;62.00;;;;;;4994661;28;90114;-86
2022/12/28 10:27:44;;;;;;;10.80;4.15;;;20.30;61.90;;;;;;5010374;27;87448;-86
2022/12/28 10:30:15;;;;;;;12.60;4.13;;;20.30;62.20;;;;;;5008611;27;86993;-85
2022/12/28 10:32:52;;;;;;;10.60;3.78;;;20.30;62.30;;;;;;5008824;27;88259;-84
2022/12/28 10:35:29;;;;;;;13.23;4.03;;;20.30;62.20;;;;;;5006890;27;90111;-84
2022/12/28 10:38:03;;;;;;;10.60;3.95;;;20.30;62.10;;;;;;5009404;28;87620;-84
2022/12/28 10:40:32;;;;;;;13.77;3.90;;;20.40;62.00;;;;;;5008845;27;87141;-84
2022/12/28 10:43:04;;;;;;;10.20;3.67;;;20.30;62.10;;;;;;5008049;27;88180;-84
2022/12/28 10:45:46;;;;;;;10.45;4.00;;;20.30;62.10;;;;;;5007894;27;87712;-83
2022/12/28 10:48:17;;;;;;;11.20;3.70;;;20.20;62.10;;;;;;5006935;27;88524;-84
2022/12/28 10:50:55;;;;;;;11.25;3.70;;;20.30;62.10;;;;;;5007896;27;87566;-83
2022/12/28 10:53:24;;;;;;;9.10;3.53;;;20.30;62.10;;;;;;5008012;27;87538;-83
2022/12/28 10:56:04;;;;;;;13.02;3.95;;;20.30;62.10;;;;;;5009213;28;87722;-84
2022/12/28 10:58:33;;;;;;;11.00;3.95;;;20.20;62.20;;;;;;5008579;27;87027;-85
2022/12/28 11:01:11;;;;;;;11.02;3.60;;;20.30;62.50;;;;;;5008427;27;87320;-84
2022/12/28 11:03:39;;;;;;;12.23;3.50;;;20.20;62.10;;;;;;4994201;27;91342;-84
2022/12/28 11:06:17;;;;;;;8.43;3.25;;;20.30;62.00;;;;;;4995281;28;87379;-83
2022/12/28 11:08:45;;;;;;;13.55;4.18;;;20.30;61.90;;;;;;5008045;27;87281;-85
2022/12/28 11:11:21;;;;;;;10.65;3.67;;;20.30;62.00;;;;;;5008446;28;87489;-85
2022/12/28 11:14:19;;;;;;;10.27;3.35;;;20.20;62.10;;;;;;5007378;28;92794;-84
2022/12/28 11:16:45;;;;;;;10.65;3.58;;;20.20;62.20;;;;;;4977798;28;94367;-84
2022/12/28 11:19:11;;;;;;;8.63;3.03;;;20.30;62.00;;;;;;4990585;28;87609;-84
2022/12/28 11:21:38;;;;;;;10.80;4.03;;;20.30;62.00;;;;;;4975241;28;87378;-85
2022/12/28 11:24:04;;;;;;;7.85;2.88;;;20.40;61.60;;;;;;4974955;28;87982;-86
2022/12/28 11:26:32;;;;;;;10.57;3.83;;;20.40;61.00;;;;;;4975901;28;88205;-85
2022/12/28 11:29:00;;;;;;;11.85;3.65;;;20.50;61.00;;;;;;4982962;28;87935;-85
2022/12/28 11:31:32;;;;;;;10.25;3.53;;;20.50;60.90;;;;;;4976416;28;86851;-84
2022/12/28 11:34:03;;;;;;;6.90;2.70;;;20.60;60.90;;;;;;4976356;28;88571;-86
2022/12/28 11:36:37;;;;;;;7.43;2.95;;;20.60;61.10;;;;;;4967276;28;88224;-85
2022/12/28 11:39:24;;;;;;;8.38;3.33;;;20.70;61.20;;;;;;4979698;28;88287;-84
2022/12/28 11:41:53;;;;;;;9.52;3.28;;;20.70;61.30;;;;;;4978249;28;88011;-85
2022/12/28 11:44:40;;;;;;;9.88;2.92;;;20.70;61.60;;;;;;4977825;28;89231;-84
2022/12/28 11:47:15;;;;;;;8.43;3.60;;;20.70;62.00;;;;;;4955516;28;88025;-85
2022/12/28 11:49:42;;;;;;;10.35;3.50;;;20.70;61.40;;;;;;4956351;28;87450;-86
2022/12/28 11:52:13;;;;;;;8.63;3.38;;;20.70;61.70;;;;;;4954661;28;87555;-85
2022/12/28 11:54:50;;;;;;;7.90;3.20;;;20.70;61.40;;;;;;4957135;28;88681;-84
2022/12/28 11:57:39;;;;;;;7.85;2.63;;;20.80;61.20;;;;;;4965257;28;88353;-86
2022/12/28 12:00:36;;;;;;;6.28;2.80;;;20.80;61.40;;;;;;4966018;28;87207;-86
2022/12/28 12:03:02;;;;;;;7.38;2.63;;;20.90;61.40;;;;;;4908291;28;88259;-86
2022/12/28 12:05:36;;;;;;;11.32;2.70;;;21.00;61.40;;;;;;4906963;28;89300;-85
2022/12/28 12:08:22;;;;;;;6.47;2.63;;;21.10;61.30;;;;;;4904671;28;88630;-86
2022/12/28 12:11:24;;;;;;;8.85;3.08;;;21.20;60.50;;;;;;4849530;29;87290;-84
2022/12/28 12:13:52;;;;;;;8.07;2.70;;;21.20;60.60;;;;;;4849191;29;91230;-85
2022/12/28 12:16:47;;;;;;;6.37;2.83;;;21.20;60.40;;;;;;4849881;29;88515;-86
2022/12/28 12:19:24;;;;;;;9.43;3.08;;;21.20;60.50;;;;;;4812542;29;88469;-86
2022/12/28 12:22:00;;;;;;;9.35;3.03;;;21.30;60.60;;;;;;4812343;29;87359;-87
2022/12/28 12:24:36;;;;;;;11.10;3.55;;;21.20;60.80;;;;;;4825405;29;87508;-86
2022/12/28 12:27:13;;;;;;;7.90;2.55;;;21.20;60.90;;;;;;4834394;29;88479;-86
2022/12/28 12:29:41;;;;;;;9.25;3.28;;;21.20;60.80;;;;;;4834485;29;87752;-85
2022/12/28 12:32:20;;;;;;;7.68;2.83;;;21.20;61.20;;;;;;4834708;29;88556;-85
2022/12/28 12:35:02;;;;;;;15.45;3.72;;;21.10;61.50;;;;;;4834240;29;91365;-85
2022/12/28 12:37:39;;;;;;;8.63;3.22;;;21.10;61.50;;;;;;4834276;29;89725;-86
2022/12/28 12:40:08;;;;;;;6.70;2.42;;;21.10;61.60;;;;;;4868711;28;88226;-86
2022/12/28 12:42:41;;;;;;;6.97;3.13;;;21.00;61.60;;;;;;4850389;28;88372;-85
2022/12/28 12:45:34;;;;;;;7.78;2.88;;;21.00;61.60;;;;;;4894203;28;88183;-84
2022/12/28 12:48:30;;;;;;;8.48;2.83;;;21.00;61.50;;;;;;4919004;28;91663;-86
2022/12/28 12:51:10;;;;;;;9.15;2.92;;;21.10;61.70;;;;;;4948817;28;86696;-86
2022/12/28 12:54:08;;;;;;;8.82;2.33;;;21.10;62.10;;;;;;4948735;28;87693;-85
2022/12/28 12:56:43;;;;;;;11.45;2.70;;;21.00;62.20;;;;;;4986337;27;88245;-84
2022/12/28 12:59:30;;;;;;;11.23;3.38;;;21.10;61.90;;;;;;5011641;28;90199;-86
2022/12/28 13:02:11;;;;;;;9.25;2.90;;;21.10;62.20;;;;;;5010869;28;94180;-86
2022/12/28 13:04:40;;;;;;;7.20;2.72;;;21.10;62.10;;;;;;5010850;27;86978;-86
2022/12/28 13:07:19;;;;;;;7.53;2.80;;;21.10;62.30;;;;;;5007397;27;87368;-86
2022/12/28 13:09:45;;;;;;;;;;;21.10;62.20;;;;;;5010800;27;88913;-85
2022/12/28 13:14:36;;;;;;;7.05;2.85;;;21.20;62.00;;;;;;5009276;27;87312;-85
2022/12/28 13:17:02;;;;;;;9.32;3.00;;;21.20;62.20;;;;;;5011635;28;86903;-84
2022/12/28 13:19:28;;;;;;;15.57;3.28;;;21.10;61.90;;;;;;5008253;27;89020;-86
2022/12/28 13:21:58;;;;;;;7.68;2.72;;;21.10;62.30;;;;;;5006850;27;88889;-85
2022/12/28 13:24:27;;;;;;;6.07;2.47;;;21.10;62.20;;;;;;5014786;27;87879;-85
2022/12/28 13:26:58;;;;;;;6.03;2.67;;;21.10;62.20;;;;;;5021744;27;87191;-84
2022/12/28 13:29:31;;;;;;;6.82;2.60;;;21.20;62.10;;;;;;5007424;27;87673;-92
2022/12/28 13:31:57;;;;;;;11.07;2.67;;;21.10;61.90;;;;;;5011084;28;87713;-88